createdAt,value
2019-03-27T00:01:34.979Z,8.60
2019-03-27T00:04:04.428Z,8.60
2019-03-27T00:06:33.810Z,8.60
2019-03-27T00:09:04.031Z,8.50
2019-03-27T00:11:33.508Z,8.50
2019-03-27T00:14:02.977Z,8.50
2019-03-27T00:16:32.440Z,8.50
2019-03-27T00:19:01.804Z,8.40
2019-03-27T00:21:31.224Z,8.40
2019-03-27T00:24:00.581Z,8.40
2019-03-27T00:26:29.946Z,8.40
2019-03-27T00:28:59.301Z,8.40
2019-03-27T00:31:28.855Z,8.40
2019-03-27T00:33:58.227Z,8.40
2019-03-27T00:36:27.707Z,8.40
2019-03-27T00:38:57.077Z,8.40
2019-03-27T00:41:26.629Z,8.40
2019-03-27T00:43:56.095Z,8.30
2019-03-27T00:46:25.476Z,8.30
2019-03-27T00:48:54.852Z,8.30
2019-03-27T00:51:24.224Z,8.20
2019-03-27T00:53:53.658Z,8.30
2019-03-27T00:56:23.045Z,8.30
2019-03-27T00:58:52.421Z,8.30
2019-03-27T01:01:21.823Z,8.30
2019-03-27T01:03:51.207Z,8.30
2019-03-27T01:06:20.743Z,8.40
2019-03-27T01:08:50.189Z,8.40
2019-03-27T01:11:19.740Z,8.40
2019-03-27T01:13:49.273Z,8.40
2019-03-27T01:16:18.833Z,8.40
2019-03-27T01:18:48.421Z,8.40
2019-03-27T01:21:17.948Z,8.40
2019-03-27T01:23:47.396Z,8.40
2019-03-27T01:26:17.062Z,8.40
2019-03-27T01:28:46.434Z,8.40
2019-03-27T01:31:15.905Z,8.40
2019-03-27T01:33:45.352Z,8.40
2019-03-27T01:36:14.743Z,8.40
2019-03-27T01:38:44.219Z,8.40
2019-03-27T01:41:13.780Z,8.40
2019-03-27T01:43:43.228Z,8.40
2019-03-27T01:46:12.727Z,8.40
2019-03-27T01:48:42.959Z,8.40
2019-03-27T01:51:12.387Z,8.40
2019-03-27T01:53:41.832Z,8.40
2019-03-27T01:56:11.227Z,8.40
2019-03-27T01:58:40.723Z,8.40
2019-03-27T02:01:10.212Z,8.40
2019-03-27T02:03:39.685Z,8.40
2019-03-27T02:06:09.053Z,8.40
2019-03-27T02:08:38.418Z,8.40
2019-03-27T02:11:07.936Z,8.40
2019-03-27T02:13:37.419Z,8.40
2019-03-27T02:16:07.562Z,8.40
2019-03-27T02:18:37.068Z,8.40
2019-03-27T02:21:06.583Z,8.40
2019-03-27T02:23:35.970Z,8.40
2019-03-27T02:26:04.678Z,8.40
2019-03-27T02:28:34.123Z,8.40
2019-03-27T02:31:03.677Z,8.40
2019-03-27T02:33:33.132Z,8.40
2019-03-27T02:36:02.492Z,8.40
2019-03-27T02:38:31.884Z,8.40
2019-03-27T02:41:01.318Z,8.40
2019-03-27T02:43:30.766Z,8.40
2019-03-27T02:46:00.157Z,8.40
2019-03-27T02:48:29.556Z,8.40
2019-03-27T02:50:58.913Z,8.40
2019-03-27T02:53:28.369Z,8.30
2019-03-27T02:55:57.828Z,8.30
2019-03-27T02:58:27.276Z,8.30
2019-03-27T03:00:56.717Z,8.30
2019-03-27T03:03:26.164Z,8.30
2019-03-27T03:05:55.541Z,8.30
2019-03-27T03:08:25.001Z,8.30
2019-03-27T03:10:54.604Z,8.30
2019-03-27T03:13:24.142Z,8.30
2019-03-27T03:15:53.588Z,8.30
2019-03-27T03:18:23.116Z,8.30
2019-03-27T03:20:52.559Z,8.30
2019-03-27T03:23:21.975Z,8.30
2019-03-27T03:25:51.336Z,8.30
2019-03-27T03:28:20.802Z,8.30
2019-03-27T03:30:50.154Z,8.30
2019-03-27T03:33:19.551Z,8.30
2019-03-27T03:35:48.987Z,8.30
2019-03-27T03:38:18.576Z,8.30
2019-03-27T03:40:47.942Z,8.30
2019-03-27T03:43:17.317Z,8.30
2019-03-27T03:45:46.846Z,8.30
2019-03-27T03:48:16.388Z,8.30
2019-03-27T03:50:45.902Z,8.30
2019-03-27T03:53:15.890Z,8.30
2019-03-27T03:55:45.593Z,8.30
2019-03-27T03:58:16.953Z,8.20
2019-03-27T04:00:46.804Z,8.20
2019-03-27T04:03:16.343Z,8.20
2019-03-27T04:05:45.824Z,8.20
2019-03-27T04:08:15.424Z,8.20
2019-03-27T04:10:44.956Z,8.20
2019-03-27T04:13:14.536Z,8.20
2019-03-27T04:15:44.232Z,8.20
2019-03-27T04:18:13.676Z,8.20
2019-03-27T04:20:43.099Z,8.20
2019-03-27T04:23:12.568Z,8.20
2019-03-27T04:26:06.942Z,8.20
2019-03-27T04:28:13.180Z,8.20
2019-03-27T04:30:42.642Z,8.20
2019-03-27T04:33:12.200Z,8.20
2019-03-27T04:35:41.851Z,8.20
2019-03-27T04:38:11.292Z,8.20
2019-03-27T04:40:40.896Z,8.10
2019-03-27T04:43:10.360Z,8.10
2019-03-27T04:45:39.818Z,8.10
2019-03-27T04:48:09.293Z,8.10
2019-03-27T04:50:38.660Z,8.10
2019-03-27T04:53:08.040Z,8.10
2019-03-27T04:55:37.493Z,8.10
2019-03-27T04:58:07.028Z,8.10
2019-03-27T05:00:36.570Z,8.10
2019-03-27T05:03:06.480Z,8.10
2019-03-27T05:05:36.099Z,8.10
2019-03-27T05:08:05.543Z,8.10
2019-03-27T05:10:34.913Z,8.10
2019-03-27T05:13:04.393Z,8.10
2019-03-27T05:15:34.007Z,8.00
2019-03-27T05:18:03.483Z,8.00
2019-03-27T05:20:32.848Z,8.10
2019-03-27T05:23:02.308Z,8.10
2019-03-27T05:25:31.694Z,8.10
2019-03-27T05:28:01.163Z,8.10
2019-03-27T05:30:30.959Z,8.10
2019-03-27T05:33:00.485Z,8.00
2019-03-27T05:35:29.995Z,8.00
2019-03-27T05:37:59.397Z,8.00
2019-03-27T05:40:28.883Z,8.00
2019-03-27T05:43:00.933Z,8.10
2019-03-27T05:45:29.795Z,8.10
2019-03-27T05:48:00.175Z,8.10
2019-03-27T05:50:29.839Z,8.10
2019-03-27T05:52:59.407Z,8.20
2019-03-27T05:55:28.967Z,8.20
2019-03-27T05:57:58.345Z,8.30
2019-03-27T06:00:27.801Z,8.40
2019-03-27T06:02:57.230Z,8.40
2019-03-27T06:05:26.601Z,8.50
2019-03-27T06:07:55.986Z,8.50
2019-03-27T06:10:25.454Z,9.30
2019-03-27T06:12:54.992Z,10.70
2019-03-27T06:15:24.454Z,11.80
2019-03-27T06:17:54.744Z,12.70
2019-03-27T06:20:24.138Z,12.70
2019-03-27T06:22:53.654Z,12.20
2019-03-27T06:25:23.037Z,11.80
2019-03-27T06:27:52.428Z,11.50
2019-03-27T06:30:22.414Z,11.40
2019-03-27T06:32:51.781Z,11.30
2019-03-27T06:35:21.232Z,11.30
2019-03-27T06:37:50.695Z,11.20
2019-03-27T06:40:21.451Z,11.20
2019-03-27T06:42:50.991Z,11.20
2019-03-27T06:45:20.449Z,11.20
2019-03-27T06:47:49.967Z,11.20
2019-03-27T06:50:19.431Z,11.20
2019-03-27T06:52:51.946Z,11.10
2019-03-27T06:55:21.437Z,10.90
2019-03-27T06:57:50.868Z,10.90
2019-03-27T07:00:24.215Z,10.90
2019-03-27T07:02:53.607Z,10.90
2019-03-27T07:05:22.997Z,10.90
2019-03-27T07:07:52.395Z,10.90
2019-03-27T07:10:21.761Z,11.00
2019-03-27T07:12:51.150Z,11.00
2019-03-27T07:15:20.649Z,11.00
2019-03-27T07:17:50.081Z,11.00
2019-03-27T07:20:19.617Z,11.00
2019-03-27T07:22:49.155Z,11.00
2019-03-27T07:25:18.766Z,11.10
2019-03-27T07:27:48.228Z,11.20
2019-03-27T07:30:17.785Z,11.30
2019-03-27T07:32:47.194Z,11.40
2019-03-27T07:35:16.568Z,11.40
2019-03-27T07:37:46.040Z,11.40
2019-03-27T07:40:15.652Z,11.50
2019-03-27T07:42:45.200Z,11.50
2019-03-27T07:45:15.005Z,11.50
2019-03-27T07:47:44.378Z,11.50
2019-03-27T07:50:14.017Z,11.50
2019-03-27T07:52:43.477Z,11.40
2019-03-27T07:55:19.348Z,11.40
2019-03-27T07:57:44.253Z,11.50
2019-03-27T08:00:15.545Z,11.60
2019-03-27T08:02:45.101Z,11.80
2019-03-27T08:05:14.589Z,11.80
2019-03-27T08:07:43.996Z,11.90
2019-03-27T08:10:13.597Z,12.10
2019-03-27T08:12:43.129Z,12.00
2019-03-27T08:15:12.867Z,12.10
2019-03-27T08:17:42.337Z,12.20
2019-03-27T08:20:12.297Z,12.20
2019-03-27T08:22:41.688Z,12.40
2019-03-27T08:25:11.609Z,12.50
2019-03-27T08:27:41.083Z,12.70
2019-03-27T08:30:13.301Z,12.80
2019-03-27T08:32:42.852Z,12.90
2019-03-27T08:35:12.712Z,12.90
2019-03-27T08:37:42.271Z,12.90
2019-03-27T08:40:12.270Z,12.90
2019-03-27T08:42:41.729Z,13.00
2019-03-27T08:45:11.478Z,13.20
2019-03-27T08:47:40.993Z,13.20
2019-03-27T08:50:11.587Z,13.30
2019-03-27T08:52:41.008Z,13.30
2019-03-27T08:55:13.652Z,13.30
2019-03-27T08:57:42.264Z,13.30
2019-03-27T09:00:12.843Z,13.40
2019-03-27T09:02:42.368Z,13.60
2019-03-27T09:05:11.912Z,13.50
2019-03-27T09:07:41.559Z,13.60
2019-03-27T09:10:11.532Z,13.60
2019-03-27T09:12:41.004Z,13.70
2019-03-27T09:15:11.006Z,13.80
2019-03-27T09:17:40.409Z,13.80
2019-03-27T09:20:10.985Z,14.00
2019-03-27T09:22:40.391Z,13.70
2019-03-27T09:25:10.111Z,13.40
2019-03-27T09:27:39.595Z,13.40
2019-03-27T09:30:11.480Z,13.50
2019-03-27T09:32:40.982Z,13.70
2019-03-27T09:35:10.600Z,14.00
2019-03-27T09:37:40.061Z,14.10
2019-03-27T09:40:09.918Z,14.00
2019-03-27T09:42:39.443Z,14.00
2019-03-27T09:45:09.521Z,14.00
2019-03-27T09:47:38.909Z,13.90
2019-03-27T09:50:08.653Z,13.90
2019-03-27T09:52:38.132Z,13.80
2019-03-27T09:55:07.856Z,13.70
2019-03-27T09:57:37.323Z,13.60
2019-03-27T10:00:07.970Z,13.80
2019-03-27T10:02:37.436Z,14.00
2019-03-27T10:05:07.273Z,13.90
2019-03-27T10:07:36.720Z,14.10
2019-03-27T10:10:07.053Z,14.30
2019-03-27T10:12:36.514Z,14.30
2019-03-27T10:15:06.504Z,14.40
2019-03-27T10:17:36.008Z,14.40
2019-03-27T10:20:06.415Z,14.40
2019-03-27T10:22:35.884Z,14.40
2019-03-27T10:25:06.252Z,14.40
2019-03-27T10:27:35.896Z,14.30
2019-03-27T10:30:06.236Z,14.30
2019-03-27T10:32:35.636Z,14.30
2019-03-27T10:35:05.589Z,14.30
2019-03-27T10:37:35.085Z,14.40
2019-03-27T10:40:05.101Z,14.50
2019-03-27T10:42:34.646Z,14.20
2019-03-27T10:45:04.325Z,14.20
2019-03-27T10:47:33.884Z,14.30
2019-03-27T10:52:31.469Z,14.40
2019-03-27T10:55:00.940Z,14.60
2019-03-27T10:57:30.316Z,14.80
2019-03-27T10:59:59.700Z,14.90
2019-03-27T11:02:29.072Z,15.10
2019-03-27T11:04:58.458Z,15.10
2019-03-27T11:07:27.828Z,15.10
2019-03-27T11:09:57.285Z,15.00
2019-03-27T11:12:26.741Z,14.80
2019-03-27T11:14:56.121Z,14.70
2019-03-27T11:17:25.581Z,14.70
2019-03-27T11:19:54.979Z,14.40
2019-03-27T11:22:24.471Z,14.50
2019-03-27T11:24:54.037Z,14.70
2019-03-27T11:27:23.587Z,14.90
2019-03-27T11:29:53.091Z,15.10
2019-03-27T11:32:22.730Z,15.30
2019-03-27T11:34:52.188Z,15.40
2019-03-27T11:37:21.588Z,15.50
2019-03-27T11:39:50.977Z,15.50
2019-03-27T11:42:20.337Z,15.70
2019-03-27T11:44:49.820Z,15.60
2019-03-27T11:47:19.275Z,15.60
2019-03-27T11:49:48.838Z,15.70
2019-03-27T11:52:18.241Z,15.80
2019-03-27T11:54:47.819Z,15.60
2019-03-27T11:57:17.345Z,15.40
2019-03-27T11:59:53.937Z,15.10
2019-03-27T12:02:17.896Z,15.00
2019-03-27T12:04:47.302Z,15.10
2019-03-27T12:07:16.662Z,15.10
2019-03-27T12:09:46.027Z,15.20
2019-03-27T12:12:15.499Z,15.10
2019-03-27T12:14:44.890Z,15.20
2019-03-27T12:17:14.371Z,15.30
2019-03-27T12:19:43.829Z,15.20
2019-03-27T12:22:13.287Z,15.20
2019-03-27T12:24:42.824Z,15.20
2019-03-27T12:27:12.212Z,14.90
2019-03-27T12:29:41.678Z,14.90
2019-03-27T12:32:11.158Z,14.80
2019-03-27T12:34:40.552Z,15.00
2019-03-27T12:37:10.004Z,15.20
2019-03-27T12:39:40.985Z,15.00
2019-03-27T12:42:10.718Z,14.80
2019-03-27T12:44:40.098Z,14.90
2019-03-27T12:47:09.632Z,14.80
2019-03-27T12:49:39.102Z,14.90
2019-03-27T12:52:08.613Z,15.00
2019-03-27T12:54:38.080Z,15.20
2019-03-27T12:57:07.615Z,15.20
2019-03-27T12:59:37.227Z,15.00
2019-03-27T13:02:07.507Z,14.90
2019-03-27T13:04:37.023Z,15.00
2019-03-27T13:07:06.508Z,15.10
2019-03-27T13:09:35.898Z,15.20
2019-03-27T13:12:05.423Z,15.20
2019-03-27T13:14:34.909Z,15.20
2019-03-27T13:17:04.333Z,15.30
2019-03-27T13:19:33.818Z,15.20
2019-03-27T13:22:03.194Z,15.20
2019-03-27T13:24:33.592Z,15.10
2019-03-27T13:27:03.087Z,15.10
2019-03-27T13:29:32.571Z,15.10
2019-03-27T13:32:02.056Z,15.10
2019-03-27T13:34:31.622Z,15.10
2019-03-27T13:37:01.094Z,15.00
2019-03-27T13:39:30.563Z,15.00
2019-03-27T13:42:00.388Z,15.00
2019-03-27T13:44:36.792Z,14.70
2019-03-27T13:47:01.303Z,14.40
2019-03-27T13:49:30.927Z,14.30
2019-03-27T13:52:00.441Z,14.20
2019-03-27T13:54:29.924Z,14.30
2019-03-27T13:57:01.492Z,14.30
2019-03-27T13:59:30.959Z,14.40
2019-03-27T14:02:00.506Z,14.30
2019-03-27T14:04:30.063Z,14.10
2019-03-27T14:06:59.525Z,14.00
2019-03-27T14:09:28.997Z,14.00
2019-03-27T14:11:58.459Z,14.10
2019-03-27T14:14:28.274Z,13.90
2019-03-27T14:16:59.965Z,14.00
2019-03-27T14:19:29.356Z,13.90
2019-03-27T14:21:58.802Z,13.90
2019-03-27T14:24:28.380Z,14.00
2019-03-27T14:26:57.780Z,14.00
2019-03-27T14:29:27.248Z,14.10
2019-03-27T14:31:56.772Z,14.00
2019-03-27T14:34:27.841Z,14.00
2019-03-27T14:37:00.362Z,14.00
2019-03-27T14:39:30.901Z,14.10
2019-03-27T14:42:01.540Z,14.10
2019-03-27T14:44:31.029Z,14.10
2019-03-27T14:47:00.548Z,14.10
2019-03-27T14:49:30.236Z,14.20
2019-03-27T14:52:08.253Z,14.10
2019-03-27T14:54:49.812Z,13.80
2019-03-27T14:57:19.275Z,13.90
2019-03-27T14:59:48.668Z,13.80
2019-03-27T15:02:18.601Z,13.80
2019-03-27T15:04:48.094Z,13.90
2019-03-27T15:07:18.373Z,14.00
2019-03-27T15:09:49.578Z,14.10
2019-03-27T15:12:20.839Z,14.00
2019-03-27T15:14:50.383Z,14.00
2019-03-27T15:17:20.228Z,13.90
2019-03-27T15:19:49.641Z,14.00
2019-03-27T15:22:22.685Z,14.10
2019-03-27T15:24:50.221Z,14.00
2019-03-27T15:27:19.590Z,14.00
2019-03-27T15:29:49.288Z,13.90
2019-03-27T15:32:18.792Z,13.70
2019-03-27T15:34:48.268Z,13.60
2019-03-27T15:37:17.709Z,13.60
2019-03-27T15:39:47.196Z,13.60
2019-03-27T15:42:16.684Z,13.60
2019-03-27T15:44:49.458Z,13.50
2019-03-27T15:47:17.980Z,13.50
2019-03-27T15:49:47.539Z,13.60
2019-03-27T15:52:16.973Z,13.50
2019-03-27T15:54:46.449Z,13.30
2019-03-27T15:57:15.902Z,13.30
2019-03-27T15:59:45.387Z,13.30
2019-03-27T16:02:14.938Z,13.20
2019-03-27T16:04:44.340Z,13.10
2019-03-27T16:07:13.848Z,13.10
2019-03-27T16:09:43.263Z,13.10
2019-03-27T16:12:12.839Z,13.10
2019-03-27T16:14:45.842Z,13.10
2019-03-27T16:17:15.406Z,13.10
2019-03-27T16:19:44.833Z,13.10
2019-03-27T16:22:14.381Z,13.10
2019-03-27T16:24:43.811Z,13.00
2019-03-27T16:27:13.268Z,12.90
2019-03-27T16:29:42.824Z,12.90
2019-03-27T16:32:12.364Z,12.90
2019-03-27T16:34:41.833Z,12.90
2019-03-27T16:37:11.358Z,12.90
2019-03-27T16:39:41.889Z,12.80
2019-03-27T16:42:11.274Z,12.70
2019-03-27T16:44:40.811Z,12.70
2019-03-27T16:47:10.334Z,12.70
2019-03-27T16:49:39.835Z,12.70
2019-03-27T16:52:09.477Z,12.70
2019-03-27T16:54:39.008Z,12.70
2019-03-27T16:57:10.177Z,12.50
2019-03-27T16:59:39.764Z,12.50
2019-03-27T17:02:10.805Z,12.50
2019-03-27T17:04:40.211Z,12.50
2019-03-27T17:07:09.758Z,12.50
2019-03-27T17:09:39.158Z,12.40
2019-03-27T17:12:10.819Z,12.40
2019-03-27T17:14:40.287Z,12.40
2019-03-27T17:17:09.823Z,12.20
2019-03-27T17:19:39.224Z,12.20
2019-03-27T17:22:18.847Z,12.10
2019-03-27T17:24:39.789Z,12.00
2019-03-27T17:27:09.220Z,11.90
2019-03-27T17:29:38.635Z,11.80
2019-03-27T17:32:08.168Z,11.80
2019-03-27T17:34:37.638Z,11.80
2019-03-27T17:37:07.171Z,11.80
2019-03-27T17:39:36.625Z,11.70
2019-03-27T17:42:06.145Z,11.70
2019-03-27T17:44:35.596Z,11.70
2019-03-27T17:47:06.665Z,11.60
2019-03-27T17:49:36.165Z,11.50
2019-03-27T17:52:05.722Z,11.50
2019-03-27T17:54:35.257Z,11.40
2019-03-27T17:57:04.836Z,11.40
2019-03-27T17:59:34.308Z,11.40
2019-03-27T18:02:03.795Z,11.40
2019-03-27T18:04:33.199Z,11.40
2019-03-27T18:07:04.659Z,11.40
2019-03-27T18:09:34.222Z,11.40
2019-03-27T18:12:03.807Z,11.40
2019-03-27T18:14:33.368Z,11.40
2019-03-27T18:17:03.093Z,11.30
2019-03-27T18:19:32.481Z,11.30
2019-03-27T18:22:07.641Z,11.30
2019-03-27T18:24:33.005Z,11.30
2019-03-27T18:27:02.477Z,11.30
2019-03-27T18:29:31.957Z,11.30
2019-03-27T18:32:01.436Z,11.30
2019-03-27T18:34:30.923Z,11.30
2019-03-27T18:37:00.411Z,11.30
2019-03-27T18:39:32.031Z,11.30
2019-03-27T18:42:07.243Z,11.20
2019-03-27T18:44:36.780Z,11.20
2019-03-27T18:47:08.843Z,11.20
2019-03-27T18:49:38.311Z,11.20
2019-03-27T18:52:07.869Z,11.20
2019-03-27T18:54:37.332Z,11.20
2019-03-27T18:57:08.156Z,11.10
2019-03-27T18:59:42.172Z,11.10
2019-03-27T19:02:11.647Z,11.10
2019-03-27T19:04:41.167Z,11.10
2019-03-27T19:07:10.681Z,11.00
2019-03-27T19:09:42.280Z,11.00
2019-03-27T19:12:11.760Z,10.90
2019-03-27T19:14:46.295Z,10.90
2019-03-27T19:17:15.821Z,10.90
2019-03-27T19:19:49.430Z,10.80
2019-03-27T19:22:18.934Z,10.80
2019-03-27T19:24:48.458Z,10.70
2019-03-27T19:27:18.067Z,10.70
2019-03-27T19:29:47.558Z,10.70
2019-03-27T19:32:17.000Z,10.60
2019-03-27T19:34:46.578Z,10.60
2019-03-27T19:37:16.038Z,10.70
2019-03-27T19:39:45.540Z,10.70
2019-03-27T19:42:15.028Z,10.70
2019-03-27T19:44:44.523Z,10.60
2019-03-27T19:47:14.180Z,10.60
2019-03-27T19:49:45.411Z,10.60
2019-03-27T19:52:14.887Z,10.50
2019-03-27T19:54:48.442Z,10.50
2019-03-27T19:57:17.805Z,10.50
2019-03-27T19:59:52.964Z,10.50
2019-03-27T20:02:22.488Z,10.50
2019-03-27T20:04:52.052Z,10.40
2019-03-27T20:07:21.573Z,10.40
2019-03-27T20:09:55.031Z,10.40
2019-03-27T20:12:24.486Z,10.40
2019-03-27T20:14:53.927Z,10.30
2019-03-27T20:17:24.747Z,10.30
2019-03-27T20:19:57.312Z,10.40
2019-03-27T20:22:30.093Z,10.30
2019-03-27T20:25:05.238Z,10.30
2019-03-27T20:27:38.960Z,10.30
2019-03-27T20:30:10.745Z,10.30
2019-03-27T20:32:42.013Z,10.30
2019-03-27T20:35:14.327Z,10.30
2019-03-27T20:37:45.423Z,10.30
2019-03-27T20:40:19.152Z,10.30
2019-03-27T20:42:52.123Z,10.30
2019-03-27T20:45:24.152Z,10.20
2019-03-27T20:47:55.356Z,10.20
2019-03-27T20:50:26.936Z,10.10
2019-03-27T20:52:55.984Z,10.10
2019-03-27T20:55:30.435Z,10.10
2019-03-27T20:57:56.716Z,10.10
2019-03-27T21:00:30.281Z,10.10
2019-03-27T21:03:01.118Z,10.10
2019-03-27T21:05:34.922Z,10.10
2019-03-27T21:08:01.770Z,10.10
2019-03-27T21:10:31.535Z,10.10
2019-03-27T21:13:02.458Z,10.10
2019-03-27T21:15:32.087Z,10.10
2019-03-27T21:18:01.676Z,10.10
2019-03-27T21:20:32.345Z,10.00
2019-03-27T21:23:01.804Z,10.00
2019-03-27T21:25:31.514Z,10.00
2019-03-27T21:28:01.310Z,10.00
2019-03-27T21:30:30.742Z,10.00
2019-03-27T21:33:03.849Z,10.00
2019-03-27T21:35:33.682Z,10.00
2019-03-27T21:38:03.343Z,10.10
2019-03-27T21:40:32.942Z,10.10
2019-03-27T21:43:02.729Z,10.10
2019-03-27T21:45:32.541Z,10.10
2019-03-27T21:48:02.243Z,10.10
2019-03-27T21:50:31.769Z,10.10
2019-03-27T21:53:01.441Z,10.10
2019-03-27T21:55:42.108Z,10.10
2019-03-27T21:58:02.202Z,10.10
2019-03-27T22:00:39.238Z,10.10
2019-03-27T22:03:09.277Z,10.10
2019-03-27T22:05:39.022Z,10.10
2019-03-27T22:08:08.638Z,10.10
2019-03-27T22:10:38.250Z,10.10
2019-03-27T22:13:07.870Z,10.10
2019-03-27T22:15:37.510Z,10.10
2019-03-27T22:18:07.148Z,10.10
2019-03-27T22:20:39.519Z,10.10
2019-03-27T22:23:08.087Z,10.10
2019-03-27T22:25:37.849Z,10.10
2019-03-27T22:28:07.378Z,10.10
2019-03-27T22:30:37.104Z,10.10
2019-03-27T22:33:06.747Z,10.00
2019-03-27T22:35:36.455Z,10.00
2019-03-27T22:38:06.087Z,10.00
2019-03-27T22:40:35.701Z,10.00
2019-03-27T22:43:05.373Z,10.00
2019-03-27T22:45:35.099Z,10.10
2019-03-27T22:48:04.775Z,10.10
2019-03-27T22:50:34.432Z,10.10
2019-03-27T22:53:04.039Z,10.10
2019-03-27T22:55:33.623Z,10.10
2019-03-27T22:58:03.107Z,10.10
2019-03-27T23:00:49.512Z,10.10
2019-03-27T23:03:19.263Z,10.10
2019-03-27T23:05:48.863Z,10.10
2019-03-27T23:08:18.512Z,10.10
2019-03-27T23:10:48.220Z,10.10
2019-03-27T23:13:17.856Z,10.10
2019-03-27T23:15:47.528Z,10.10
2019-03-27T23:18:17.832Z,10.10
2019-03-27T23:20:55.611Z,10.10
2019-03-27T23:23:18.611Z,10.10
2019-03-27T23:25:48.244Z,10.10
2019-03-27T23:28:19.142Z,10.10
2019-03-27T23:30:48.671Z,10.10
2019-03-27T23:33:20.257Z,10.10
2019-03-27T23:35:49.626Z,10.10
2019-03-27T23:38:19.126Z,10.10
2019-03-27T23:40:48.636Z,10.10
2019-03-27T23:43:18.215Z,10.10
2019-03-27T23:45:47.815Z,10.10
2019-03-27T23:48:17.363Z,10.10
2019-03-27T23:50:46.957Z,10.10
2019-03-27T23:53:16.510Z,10.10
2019-03-27T23:55:46.089Z,10.10
2019-03-27T23:58:15.674Z,10.10
